sensor_id;sensor_type;location;lat;lon;timestamp;temperature;humidity
15095;DHT22;7648;52.264;9.632;2023-04-24T00:01:32;12.60;99.90
15095;DHT22;7648;52.264;9.632;2023-04-24T00:05:36;12.50;99.90
15095;DHT22;7648;52.264;9.632;2023-04-24T00:09:37;12.40;99.90
15095;DHT22;7648;52.264;9.632;2023-04-24T00:13:39;12.50;99.90
15095;DHT22;7648;52.264;9.632;2023-04-24T00:17:41;12.40;99.90
15095;DHT22;7648;52.264;9.632;2023-04-24T00:21:44;12.40;99.90
15095;DHT22;7648;52.264;9.632;2023-04-24T00:25:46;12.50;99.90
15095;DHT22;7648;52.264;9.632;2023-04-24T00:29:48;12.50;99.90
15095;DHT22;7648;52.264;9.632;2023-04-24T00:33:50;12.50;99.90
15095;DHT22;7648;52.264;9.632;2023-04-24T00:37:53;12.50;99.90
15095;DHT22;7648;52.264;9.632;2023-04-24T00:41:56;12.50;99.90
15095;DHT22;7648;52.264;9.632;2023-04-24T00:45:58;12.50;99.90
15095;DHT22;7648;52.264;9.632;2023-04-24T00:50:02;12.40;99.90
15095;DHT22;7648;52.264;9.632;2023-04-24T00:54:06;12.30;99.90
15095;DHT22;7648;52.264;9.632;2023-04-24T00:58:08;12.30;99.90
15095;DHT22;7648;52.264;9.632;2023-04-24T01:02:10;12.30;99.90
15095;DHT22;7648;52.264;9.632;2023-04-24T01:06:13;12.20;99.90
15095;DHT22;7648;52.264;9.632;2023-04-24T01:10:16;12.10;99.90
15095;DHT22;7648;52.264;9.632;2023-04-24T01:14:20;12.00;99.90
15095;DHT22;7648;52.264;9.632;2023-04-24T01:18:24;11.90;99.90
15095;DHT22;7648;52.264;9.632;2023-04-24T01:22:27;11.80;99.90
15095;DHT22;7648;52.264;9.632;2023-04-24T01:26:29;11.80;99.90
15095;DHT22;7648;52.264;9.632;2023-04-24T01:30:31;11.70;99.90
15095;DHT22;7648;52.264;9.632;2023-04-24T01:34:33;11.60;99.90
15095;DHT22;7648;52.264;9.632;2023-04-24T01:38:37;11.60;99.90
15095;DHT22;7648;52.264;9.632;2023-04-24T01:42:40;11.50;99.90
15095;DHT22;7648;52.264;9.632;2023-04-24T01:46:43;11.40;99.90
15095;DHT22;7648;52.264;9.632;2023-04-24T01:50:44;11.40;99.90
15095;DHT22;7648;52.264;9.632;2023-04-24T01:54:48;11.30;99.90
15095;DHT22;7648;52.264;9.632;2023-04-24T01:58:52;11.30;99.90
15095;DHT22;7648;52.264;9.632;2023-04-24T02:02:55;11.30;99.90
15095;DHT22;7648;52.264;9.632;2023-04-24T02:06:57;11.40;99.90
15095;DHT22;7648;52.264;9.632;2023-04-24T02:11:00;11.40;99.90
15095;DHT22;7648;52.264;9.632;2023-04-24T02:15:03;11.40;99.90
15095;DHT22;7648;52.264;9.632;2023-04-24T02:19:05;11.40;99.90
15095;DHT22;7648;52.264;9.632;2023-04-24T02:23:07;11.30;99.90
15095;DHT22;7648;52.264;9.632;2023-04-24T02:27:10;11.30;99.90
15095;DHT22;7648;52.264;9.632;2023-04-24T02:31:13;11.30;99.90
15095;DHT22;7648;52.264;9.632;2023-04-24T02:35:15;11.20;99.90
15095;DHT22;7648;52.264;9.632;2023-04-24T02:39:17;11.10;99.90
15095;DHT22;7648;52.264;9.632;2023-04-24T02:43:20;11.10;99.90
15095;DHT22;7648;52.264;9.632;2023-04-24T02:47:22;11.10;99.90
15095;DHT22;7648;52.264;9.632;2023-04-24T02:51:24;11.10;99.90
15095;DHT22;7648;52.264;9.632;2023-04-24T02:55:26;11.10;99.90
15095;DHT22;7648;52.264;9.632;2023-04-24T02:59:30;11.10;99.90
15095;DHT22;7648;52.264;9.632;2023-04-24T03:03:32;11.20;99.90
15095;DHT22;7648;52.264;9.632;2023-04-24T03:07:34;11.20;99.90
15095;DHT22;7648;52.264;9.632;2023-04-24T03:11:36;11.20;99.90
15095;DHT22;7648;52.264;9.632;2023-04-24T03:15:39;11.20;99.90
15095;DHT22;7648;52.264;9.632;2023-04-24T03:19:41;11.20;99.90
15095;DHT22;7648;52.264;9.632;2023-04-24T03:23:45;11.10;99.90
15095;DHT22;7648;52.264;9.632;2023-04-24T03:27:47;11.20;99.90
15095;DHT22;7648;52.264;9.632;2023-04-24T03:32:02;11.10;99.90
15095;DHT22;7648;52.264;9.632;2023-04-24T03:36:05;11.10;99.90
15095;DHT22;7648;52.264;9.632;2023-04-24T03:40:13;11.00;99.90
15095;DHT22;7648;52.264;9.632;2023-04-24T03:44:15;11.00;99.90
15095;DHT22;7648;52.264;9.632;2023-04-24T03:48:19;10.90;99.90
15095;DHT22;7648;52.264;9.632;2023-04-24T03:52:21;10.90;99.90
15095;DHT22;7648;52.264;9.632;2023-04-24T03:56:23;10.80;99.90
15095;DHT22;7648;52.264;9.632;2023-04-24T04:00:25;10.80;99.90
15095;DHT22;7648;52.264;9.632;2023-04-24T04:04:47;10.80;99.90
15095;DHT22;7648;52.264;9.632;2023-04-24T04:08:48;10.70;99.90
15095;DHT22;7648;52.264;9.632;2023-04-24T04:12:50;10.70;99.90
15095;DHT22;7648;52.264;9.632;2023-04-24T04:16:52;10.70;99.90
15095;DHT22;7648;52.264;9.632;2023-04-24T04:20:56;10.70;99.90
15095;DHT22;7648;52.264;9.632;2023-04-24T04:24:58;10.80;99.90
15095;DHT22;7648;52.264;9.632;2023-04-24T04:29:01;10.80;99.90
15095;DHT22;7648;52.264;9.632;2023-04-24T04:33:04;10.80;99.90
15095;DHT22;7648;52.264;9.632;2023-04-24T04:37:09;10.70;99.90
15095;DHT22;7648;52.264;9.632;2023-04-24T04:41:34;10.70;99.90
15095;DHT22;7648;52.264;9.632;2023-04-24T04:45:37;10.70;99.90
15095;DHT22;7648;52.264;9.632;2023-04-24T04:50:01;10.60;99.90
15095;DHT22;7648;52.264;9.632;2023-04-24T04:54:07;10.60;99.90
15095;DHT22;7648;52.264;9.632;2023-04-24T04:58:11;10.60;99.90
15095;DHT22;7648;52.264;9.632;2023-04-24T05:02:13;10.70;99.90
15095;DHT22;7648;52.264;9.632;2023-04-24T05:06:15;10.70;99.90
15095;DHT22;7648;52.264;9.632;2023-04-24T05:10:21;10.80;99.90
15095;DHT22;7648;52.264;9.632;2023-04-24T05:14:24;10.80;99.90
15095;DHT22;7648;52.264;9.632;2023-04-24T05:18:26;10.90;99.90
15095;DHT22;7648;52.264;9.632;2023-04-24T05:22:28;11.00;99.90
15095;DHT22;7648;52.264;9.632;2023-04-24T05:26:32;11.00;99.90
15095;DHT22;7648;52.264;9.632;2023-04-24T05:30:34;11.00;99.90
15095;DHT22;7648;52.264;9.632;2023-04-24T05:34:37;11.10;99.90
15095;DHT22;7648;52.264;9.632;2023-04-24T05:38:39;11.20;99.90
15095;DHT22;7648;52.264;9.632;2023-04-24T05:42:42;11.30;99.90
15095;DHT22;7648;52.264;9.632;2023-04-24T05:46:44;11.30;99.90
15095;DHT22;7648;52.264;9.632;2023-04-24T05:50:46;11.30;99.90
15095;DHT22;7648;52.264;9.632;2023-04-24T05:54:48;11.30;99.90
15095;DHT22;7648;52.264;9.632;2023-04-24T05:58:57;11.30;99.90
15095;DHT22;7648;52.264;9.632;2023-04-24T06:02:59;11.20;99.90
15095;DHT22;7648;52.264;9.632;2023-04-24T06:07:04;11.20;99.90
15095;DHT22;7648;52.264;9.632;2023-04-24T06:11:07;11.20;99.90
15095;DHT22;7648;52.264;9.632;2023-04-24T06:15:11;11.10;99.90
15095;DHT22;7648;52.264;9.632;2023-04-24T06:19:29;11.10;99.90
15095;DHT22;7648;52.264;9.632;2023-04-24T06:23:31;11.10;99.90
15095;DHT22;7648;52.264;9.632;2023-04-24T06:27:33;11.20;99.90
15095;DHT22;7648;52.264;9.632;2023-04-24T06:31:37;11.30;99.90
15095;DHT22;7648;52.264;9.632;2023-04-24T06:35:39;11.50;99.90
15095;DHT22;7648;52.264;9.632;2023-04-24T06:39:41;11.50;99.90
15095;DHT22;7648;52.264;9.632;2023-04-24T06:43:43;11.70;99.90
15095;DHT22;7648;52.264;9.632;2023-04-24T06:47:46;11.90;99.90
15095;DHT22;7648;52.264;9.632;2023-04-24T06:51:48;11.80;99.90
15095;DHT22;7648;52.264;9.632;2023-04-24T06:55:50;11.70;99.90
15095;DHT22;7648;52.264;9.632;2023-04-24T06:59:52;11.60;99.90
15095;DHT22;7648;52.264;9.632;2023-04-24T07:03:55;11.60;99.90
15095;DHT22;7648;52.264;9.632;2023-04-24T07:07:57;11.60;99.90
15095;DHT22;7648;52.264;9.632;2023-04-24T07:11:59;11.70;99.90
15095;DHT22;7648;52.264;9.632;2023-04-24T07:16:01;11.70;99.90
15095;DHT22;7648;52.264;9.632;2023-04-24T07:20:06;11.70;99.90
15095;DHT22;7648;52.264;9.632;2023-04-24T07:24:09;11.70;99.90
15095;DHT22;7648;52.264;9.632;2023-04-24T07:28:13;11.60;99.90
15095;DHT22;7648;52.264;9.632;2023-04-24T07:32:15;11.70;99.90
15095;DHT22;7648;52.264;9.632;2023-04-24T07:36:18;11.80;99.90
15095;DHT22;7648;52.264;9.632;2023-04-24T07:40:20;11.90;99.90
15095;DHT22;7648;52.264;9.632;2023-04-24T07:44:22;12.10;99.90
15095;DHT22;7648;52.264;9.632;2023-04-24T07:48:24;12.20;99.90
15095;DHT22;7648;52.264;9.632;2023-04-24T07:52:28;12.30;99.90
15095;DHT22;7648;52.264;9.632;2023-04-24T07:56:31;12.30;99.90
15095;DHT22;7648;52.264;9.632;2023-04-24T08:00:33;12.40;99.90
15095;DHT22;7648;52.264;9.632;2023-04-24T08:04:35;12.60;99.90
15095;DHT22;7648;52.264;9.632;2023-04-24T08:08:38;12.50;99.90
15095;DHT22;7648;52.264;9.632;2023-04-24T08:12:40;12.40;99.90
15095;DHT22;7648;52.264;9.632;2023-04-24T08:16:42;12.20;99.90
15095;DHT22;7648;52.264;9.632;2023-04-24T08:20:44;12.10;99.90
15095;DHT22;7648;52.264;9.632;2023-04-24T08:24:48;12.10;99.90
15095;DHT22;7648;52.264;9.632;2023-04-24T08:28:49;12.20;99.90
15095;DHT22;7648;52.264;9.632;2023-04-24T08:32:51;12.30;99.90
15095;DHT22;7648;52.264;9.632;2023-04-24T08:36:54;12.30;99.90
15095;DHT22;7648;52.264;9.632;2023-04-24T08:40:59;12.10;99.90
15095;DHT22;7648;52.264;9.632;2023-04-24T08:45:01;12.10;99.90
15095;DHT22;7648;52.264;9.632;2023-04-24T08:49:03;12.30;99.90
15095;DHT22;7648;52.264;9.632;2023-04-24T08:53:07;12.40;99.90
15095;DHT22;7648;52.264;9.632;2023-04-24T08:57:10;12.40;99.90
15095;DHT22;7648;52.264;9.632;2023-04-24T09:01:13;12.40;99.90
15095;DHT22;7648;52.264;9.632;2023-04-24T09:05:16;12.60;99.90
15095;DHT22;7648;52.264;9.632;2023-04-24T09:09:18;12.80;99.90
15095;DHT22;7648;52.264;9.632;2023-04-24T09:13:21;12.80;99.90
15095;DHT22;7648;52.264;9.632;2023-04-24T09:17:24;12.90;99.90
15095;DHT22;7648;52.264;9.632;2023-04-24T09:21:32;12.80;99.90
15095;DHT22;7648;52.264;9.632;2023-04-24T09:25:35;12.60;99.90
15095;DHT22;7648;52.264;9.632;2023-04-24T09:29:38;12.60;99.90
15095;DHT22;7648;52.264;9.632;2023-04-24T09:33:40;12.60;99.90
15095;DHT22;7648;52.264;9.632;2023-04-24T09:37:57;12.70;99.90
15095;DHT22;7648;52.264;9.632;2023-04-24T09:42:01;12.80;99.90
15095;DHT22;7648;52.264;9.632;2023-04-24T09:46:07;13.10;99.90
15095;DHT22;7648;52.264;9.632;2023-04-24T09:50:12;12.90;99.90
15095;DHT22;7648;52.264;9.632;2023-04-24T09:54:15;13.00;99.90
15095;DHT22;7648;52.264;9.632;2023-04-24T09:58:17;12.90;99.90
15095;DHT22;7648;52.264;9.632;2023-04-24T10:02:21;12.80;99.90
15095;DHT22;7648;52.264;9.632;2023-04-24T10:06:31;12.90;99.90
15095;DHT22;7648;52.264;9.632;2023-04-24T10:10:34;13.00;99.90
15095;DHT22;7648;52.264;9.632;2023-04-24T10:14:37;13.10;99.90
15095;DHT22;7648;52.264;9.632;2023-04-24T10:18:41;13.00;99.90
15095;DHT22;7648;52.264;9.632;2023-04-24T10:22:44;12.80;99.90
15095;DHT22;7648;52.264;9.632;2023-04-24T10:26:48;12.60;99.90
15095;DHT22;7648;52.264;9.632;2023-04-24T10:30:51;12.50;99.90
15095;DHT22;7648;52.264;9.632;2023-04-24T10:34:56;12.40;99.90
15095;DHT22;7648;52.264;9.632;2023-04-24T10:39:01;12.20;99.90
15095;DHT22;7648;52.264;9.632;2023-04-24T10:43:04;12.30;99.90
15095;DHT22;7648;52.264;9.632;2023-04-24T10:47:13;12.30;99.90
15095;DHT22;7648;52.264;9.632;2023-04-24T10:51:16;12.40;99.90
15095;DHT22;7648;52.264;9.632;2023-04-24T10:55:44;12.40;99.90
15095;DHT22;7648;52.264;9.632;2023-04-24T10:59:46;12.40;99.90
15095;DHT22;7648;52.264;9.632;2023-04-24T11:03:50;12.40;99.90
15095;DHT22;7648;52.264;9.632;2023-04-24T11:08:13;12.50;99.90
15095;DHT22;7648;52.264;9.632;2023-04-24T11:12:16;12.40;99.90
15095;DHT22;7648;52.264;9.632;2023-04-24T11:16:26;12.50;99.90
15095;DHT22;7648;52.264;9.632;2023-04-24T11:20:29;12.80;99.90
15095;DHT22;7648;52.264;9.632;2023-04-24T11:24:38;13.10;99.90
15095;DHT22;7648;52.264;9.632;2023-04-24T11:28:47;13.70;99.90
15095;DHT22;7648;52.264;9.632;2023-04-24T11:32:50;14.10;99.90
15095;DHT22;7648;52.264;9.632;2023-04-24T11:36:53;14.60;99.90
15095;DHT22;7648;52.264;9.632;2023-04-24T11:40:57;14.60;99.90
15095;DHT22;7648;52.264;9.632;2023-04-24T11:45:00;15.20;99.90
15095;DHT22;7648;52.264;9.632;2023-04-24T11:49:02;15.10;99.90
15095;DHT22;7648;52.264;9.632;2023-04-24T11:53:04;14.70;99.90
15095;DHT22;7648;52.264;9.632;2023-04-24T11:57:07;14.50;99.90
15095;DHT22;7648;52.264;9.632;2023-04-24T12:01:09;14.10;99.90
15095;DHT22;7648;52.264;9.632;2023-04-24T12:05:19;13.40;99.90
15095;DHT22;7648;52.264;9.632;2023-04-24T12:09:21;12.70;99.90
15095;DHT22;7648;52.264;9.632;2023-04-24T12:13:25;12.50;99.90
15095;DHT22;7648;52.264;9.632;2023-04-24T12:17:28;12.80;99.90
15095;DHT22;7648;52.264;9.632;2023-04-24T12:21:30;13.70;99.90
15095;DHT22;7648;52.264;9.632;2023-04-24T12:25:33;14.40;99.90
15095;DHT22;7648;52.264;9.632;2023-04-24T12:29:36;14.60;99.90
15095;DHT22;7648;52.264;9.632;2023-04-24T12:33:38;14.40;99.90
15095;DHT22;7648;52.264;9.632;2023-04-24T12:37:42;14.30;99.90
15095;DHT22;7648;52.264;9.632;2023-04-24T12:41:54;14.20;99.90
15095;DHT22;7648;52.264;9.632;2023-04-24T12:46:00;13.70;99.90
15095;DHT22;7648;52.264;9.632;2023-04-24T12:50:02;13.40;99.90
15095;DHT22;7648;52.264;9.632;2023-04-24T12:54:04;13.20;99.90
15095;DHT22;7648;52.264;9.632;2023-04-24T12:58:06;12.70;99.90
15095;DHT22;7648;52.264;9.632;2023-04-24T13:02:10;12.40;99.90
15095;DHT22;7648;52.264;9.632;2023-04-24T13:06:12;12.10;99.90
15095;DHT22;7648;52.264;9.632;2023-04-24T13:10:14;11.80;99.90
15095;DHT22;7648;52.264;9.632;2023-04-24T13:14:15;11.50;99.90
15095;DHT22;7648;52.264;9.632;2023-04-24T13:18:19;11.50;99.90
15095;DHT22;7648;52.264;9.632;2023-04-24T13:22:20;11.40;99.90
15095;DHT22;7648;52.264;9.632;2023-04-24T13:26:22;11.30;99.90
15095;DHT22;7648;52.264;9.632;2023-04-24T13:30:24;11.40;99.90
15095;DHT22;7648;52.264;9.632;2023-04-24T13:34:27;11.70;99.90
15095;DHT22;7648;52.264;9.632;2023-04-24T13:38:29;11.40;99.90
15095;DHT22;7648;52.264;9.632;2023-04-24T13:42:31;11.10;99.90
15095;DHT22;7648;52.264;9.632;2023-04-24T13:46:33;10.80;99.90
15095;DHT22;7648;52.264;9.632;2023-04-24T13:50:36;10.50;99.90
15095;DHT22;7648;52.264;9.632;2023-04-24T13:54:38;10.20;99.90
15095;DHT22;7648;52.264;9.632;2023-04-24T13:58:40;9.90;99.90
15095;DHT22;7648;52.264;9.632;2023-04-24T14:02:42;9.80;99.90
15095;DHT22;7648;52.264;9.632;2023-04-24T14:06:45;9.80;99.90
15095;DHT22;7648;52.264;9.632;2023-04-24T14:10:47;9.80;99.90
15095;DHT22;7648;52.264;9.632;2023-04-24T14:14:49;10.00;99.90
15095;DHT22;7648;52.264;9.632;2023-04-24T14:18:51;10.10;99.90
15095;DHT22;7648;52.264;9.632;2023-04-24T14:22:54;10.00;99.90
15095;DHT22;7648;52.264;9.632;2023-04-24T14:26:59;9.90;99.90
15095;DHT22;7648;52.264;9.632;2023-04-24T14:31:00;9.80;99.90
15095;DHT22;7648;52.264;9.632;2023-04-24T14:35:03;9.60;99.90
15095;DHT22;7648;52.264;9.632;2023-04-24T14:39:07;9.50;99.90
15095;DHT22;7648;52.264;9.632;2023-04-24T14:43:09;9.60;99.90
15095;DHT22;7648;52.264;9.632;2023-04-24T14:47:11;9.50;99.90
15095;DHT22;7648;52.264;9.632;2023-04-24T14:51:12;9.60;99.90
15095;DHT22;7648;52.264;9.632;2023-04-24T14:55:16;9.90;99.90
15095;DHT22;7648;52.264;9.632;2023-04-24T14:59:18;9.90;99.90
15095;DHT22;7648;52.264;9.632;2023-04-24T15:03:20;9.90;99.90
15095;DHT22;7648;52.264;9.632;2023-04-24T15:07:22;9.80;99.90
15095;DHT22;7648;52.264;9.632;2023-04-24T15:11:25;9.70;99.90
15095;DHT22;7648;52.264;9.632;2023-04-24T15:15:28;9.80;99.90
15095;DHT22;7648;52.264;9.632;2023-04-24T15:19:30;9.90;99.90
15095;DHT22;7648;52.264;9.632;2023-04-24T15:23:32;10.00;99.90
15095;DHT22;7648;52.264;9.632;2023-04-24T15:27:42;10.30;99.90
15095;DHT22;7648;52.264;9.632;2023-04-24T15:31:44;10.50;99.90
15095;DHT22;7648;52.264;9.632;2023-04-24T15:35:46;10.50;99.90
15095;DHT22;7648;52.264;9.632;2023-04-24T15:39:49;10.50;99.90
15095;DHT22;7648;52.264;9.632;2023-04-24T15:43:52;10.40;99.90
15095;DHT22;7648;52.264;9.632;2023-04-24T15:47:55;10.30;99.90
15095;DHT22;7648;52.264;9.632;2023-04-24T15:51:57;10.10;99.90
15095;DHT22;7648;52.264;9.632;2023-04-24T15:55:59;10.00;99.90
15095;DHT22;7648;52.264;9.632;2023-04-24T16:00:03;10.00;99.90
15095;DHT22;7648;52.264;9.632;2023-04-24T16:04:12;10.00;99.90
15095;DHT22;7648;52.264;9.632;2023-04-24T16:08:13;10.10;99.90
15095;DHT22;7648;52.264;9.632;2023-04-24T16:12:16;10.10;99.90
15095;DHT22;7648;52.264;9.632;2023-04-24T16:16:19;10.10;99.90
15095;DHT22;7648;52.264;9.632;2023-04-24T16:20:21;10.20;99.90
15095;DHT22;7648;52.264;9.632;2023-04-24T16:24:24;10.30;99.90
15095;DHT22;7648;52.264;9.632;2023-04-24T16:28:26;10.30;99.90
15095;DHT22;7648;52.264;9.632;2023-04-24T16:32:30;10.20;99.90
15095;DHT22;7648;52.264;9.632;2023-04-24T16:36:32;10.10;99.90
15095;DHT22;7648;52.264;9.632;2023-04-24T16:40:34;10.00;99.90
15095;DHT22;7648;52.264;9.632;2023-04-24T16:44:35;9.80;99.90
15095;DHT22;7648;52.264;9.632;2023-04-24T16:48:40;9.70;99.90
15095;DHT22;7648;52.264;9.632;2023-04-24T16:52:42;9.60;99.90
15095;DHT22;7648;52.264;9.632;2023-04-24T16:56:44;9.60;99.90
15095;DHT22;7648;52.264;9.632;2023-04-24T17:00:45;9.70;99.90
15095;DHT22;7648;52.264;9.632;2023-04-24T17:04:49;9.70;99.90
15095;DHT22;7648;52.264;9.632;2023-04-24T17:08:51;9.70;99.90
15095;DHT22;7648;52.264;9.632;2023-04-24T17:12:53;9.60;99.90
15095;DHT22;7648;52.264;9.632;2023-04-24T17:16:55;9.60;99.90
15095;DHT22;7648;52.264;9.632;2023-04-24T17:20:58;9.60;99.90
15095;DHT22;7648;52.264;9.632;2023-04-24T17:25:00;9.40;99.90
15095;DHT22;7648;52.264;9.632;2023-04-24T17:29:02;9.40;99.90
15095;DHT22;7648;52.264;9.632;2023-04-24T17:33:04;9.40;99.90
15095;DHT22;7648;52.264;9.632;2023-04-24T17:37:07;9.30;99.90
15095;DHT22;7648;52.264;9.632;2023-04-24T17:41:09;9.30;99.90
15095;DHT22;7648;52.264;9.632;2023-04-24T17:45:11;9.30;99.90
15095;DHT22;7648;52.264;9.632;2023-04-24T17:49:13;9.20;99.90
15095;DHT22;7648;52.264;9.632;2023-04-24T17:53:17;9.20;99.90
15095;DHT22;7648;52.264;9.632;2023-04-24T17:57:19;9.20;99.90
15095;DHT22;7648;52.264;9.632;2023-04-24T18:01:21;9.10;99.90
15095;DHT22;7648;52.264;9.632;2023-04-24T18:05:23;9.10;99.90
15095;DHT22;7648;52.264;9.632;2023-04-24T18:09:26;9.10;99.90
15095;DHT22;7648;52.264;9.632;2023-04-24T18:13:28;9.10;99.90
15095;DHT22;7648;52.264;9.632;2023-04-24T18:17:30;9.00;99.90
15095;DHT22;7648;52.264;9.632;2023-04-24T18:21:32;9.00;99.90
15095;DHT22;7648;52.264;9.632;2023-04-24T18:25:35;8.90;99.90
15095;DHT22;7648;52.264;9.632;2023-04-24T18:29:37;8.80;99.90
15095;DHT22;7648;52.264;9.632;2023-04-24T18:33:39;8.80;99.90
15095;DHT22;7648;52.264;9.632;2023-04-24T18:37:41;8.70;99.90
15095;DHT22;7648;52.264;9.632;2023-04-24T18:41:46;8.60;99.90
15095;DHT22;7648;52.264;9.632;2023-04-24T18:45:48;8.50;99.90
15095;DHT22;7648;52.264;9.632;2023-04-24T18:49:50;8.50;99.90
15095;DHT22;7648;52.264;9.632;2023-04-24T18:53:52;8.40;99.90
15095;DHT22;7648;52.264;9.632;2023-04-24T18:57:55;8.40;99.90
15095;DHT22;7648;52.264;9.632;2023-04-24T19:01:57;8.30;99.90
15095;DHT22;7648;52.264;9.632;2023-04-24T19:05:59;8.30;99.90
15095;DHT22;7648;52.264;9.632;2023-04-24T19:10:01;8.20;99.90
15095;DHT22;7648;52.264;9.632;2023-04-24T19:14:04;8.20;99.90
15095;DHT22;7648;52.264;9.632;2023-04-24T19:18:06;8.10;99.90
15095;DHT22;7648;52.264;9.632;2023-04-24T19:22:08;8.10;99.90
15095;DHT22;7648;52.264;9.632;2023-04-24T19:26:10;8.20;99.90
15095;DHT22;7648;52.264;9.632;2023-04-24T19:30:15;8.20;99.90
15095;DHT22;7648;52.264;9.632;2023-04-24T19:34:17;8.20;99.90
15095;DHT22;7648;52.264;9.632;2023-04-24T19:38:19;8.30;99.90
15095;DHT22;7648;52.264;9.632;2023-04-24T19:42:20;8.30;99.90
15095;DHT22;7648;52.264;9.632;2023-04-24T19:46:24;8.40;99.90
15095;DHT22;7648;52.264;9.632;2023-04-24T19:50:25;8.40;99.90
15095;DHT22;7648;52.264;9.632;2023-04-24T19:54:27;8.40;99.90
15095;DHT22;7648;52.264;9.632;2023-04-24T19:58:44;8.40;99.90
15095;DHT22;7648;52.264;9.632;2023-04-24T20:02:47;8.40;99.90
15095;DHT22;7648;52.264;9.632;2023-04-24T20:06:49;8.30;99.90
15095;DHT22;7648;52.264;9.632;2023-04-24T20:10:51;8.30;99.90
15095;DHT22;7648;52.264;9.632;2023-04-24T20:14:53;8.20;99.90
15095;DHT22;7648;52.264;9.632;2023-04-24T20:18:57;8.20;99.90
15095;DHT22;7648;52.264;9.632;2023-04-24T20:22:59;8.10;99.90
15095;DHT22;7648;52.264;9.632;2023-04-24T20:27:01;8.10;99.90
15095;DHT22;7648;52.264;9.632;2023-04-24T20:31:03;8.10;99.90
15095;DHT22;7648;52.264;9.632;2023-04-24T20:35:07;8.10;99.90
15095;DHT22;7648;52.264;9.632;2023-04-24T20:39:09;8.10;99.90
15095;DHT22;7648;52.264;9.632;2023-04-24T20:43:11;8.20;99.90
15095;DHT22;7648;52.264;9.632;2023-04-24T20:47:13;8.20;99.90
15095;DHT22;7648;52.264;9.632;2023-04-24T20:51:16;8.20;99.90
15095;DHT22;7648;52.264;9.632;2023-04-24T20:55:19;8.30;99.90
15095;DHT22;7648;52.264;9.632;2023-04-24T20:59:20;8.20;99.90
15095;DHT22;7648;52.264;9.632;2023-04-24T21:03:22;8.20;99.90
15095;DHT22;7648;52.264;9.632;2023-04-24T21:07:26;8.20;99.90
15095;DHT22;7648;52.264;9.632;2023-04-24T21:11:27;8.20;99.90
15095;DHT22;7648;52.264;9.632;2023-04-24T21:15:29;8.20;99.90
15095;DHT22;7648;52.264;9.632;2023-04-24T21:19:31;8.10;99.90
15095;DHT22;7648;52.264;9.632;2023-04-24T21:23:34;8.10;99.90
15095;DHT22;7648;52.264;9.632;2023-04-24T21:27:36;8.20;99.90
15095;DHT22;7648;52.264;9.632;2023-04-24T21:31:38;8.20;99.90
15095;DHT22;7648;52.264;9.632;2023-04-24T21:35:40;8.20;99.90
15095;DHT22;7648;52.264;9.632;2023-04-24T21:39:43;8.20;99.90
15095;DHT22;7648;52.264;9.632;2023-04-24T21:43:45;8.20;99.90
15095;DHT22;7648;52.264;9.632;2023-04-24T21:47:47;8.20;99.90
15095;DHT22;7648;52.264;9.632;2023-04-24T21:51:49;8.10;99.90
15095;DHT22;7648;52.264;9.632;2023-04-24T21:55:52;8.20;99.90
15095;DHT22;7648;52.264;9.632;2023-04-24T21:59:54;8.20;99.90
15095;DHT22;7648;52.264;9.632;2023-04-24T22:03:56;8.10;99.90
15095;DHT22;7648;52.264;9.632;2023-04-24T22:07:58;8.10;99.90
15095;DHT22;7648;52.264;9.632;2023-04-24T22:12:01;8.10;99.90
15095;DHT22;7648;52.264;9.632;2023-04-24T22:16:03;8.10;99.90
15095;DHT22;7648;52.264;9.632;2023-04-24T22:20:06;8.10;99.90
15095;DHT22;7648;52.264;9.632;2023-04-24T22:24:08;8.20;99.90
15095;DHT22;7648;52.264;9.632;2023-04-24T22:28:11;8.20;99.90
15095;DHT22;7648;52.264;9.632;2023-04-24T22:32:13;8.20;99.90
15095;DHT22;7648;52.264;9.632;2023-04-24T22:36:15;8.20;99.90
15095;DHT22;7648;52.264;9.632;2023-04-24T22:40:18;8.20;99.90
15095;DHT22;7648;52.264;9.632;2023-04-24T22:44:21;8.10;99.90
15095;DHT22;7648;52.264;9.632;2023-04-24T22:48:23;8.10;99.90
15095;DHT22;7648;52.264;9.632;2023-04-24T22:52:25;8.00;99.90
15095;DHT22;7648;52.264;9.632;2023-04-24T22:56:28;8.00;99.90
15095;DHT22;7648;52.264;9.632;2023-04-24T23:00:32;8.00;99.90
15095;DHT22;7648;52.264;9.632;2023-04-24T23:04:34;7.90;99.90
15095;DHT22;7648;52.264;9.632;2023-04-24T23:08:36;7.80;99.90
15095;DHT22;7648;52.264;9.632;2023-04-24T23:12:38;7.70;99.90
15095;DHT22;7648;52.264;9.632;2023-04-24T23:16:41;7.70;99.90
15095;DHT22;7648;52.264;9.632;2023-04-24T23:20:44;7.70;99.90
15095;DHT22;7648;52.264;9.632;2023-04-24T23:24:46;7.60;99.90
15095;DHT22;7648;52.264;9.632;2023-04-24T23:28:48;7.60;99.90
15095;DHT22;7648;52.264;9.632;2023-04-24T23:32:51;7.60;99.90
15095;DHT22;7648;52.264;9.632;2023-04-24T23:36:54;7.60;99.90
15095;DHT22;7648;52.264;9.632;2023-04-24T23:40:56;7.60;99.90
15095;DHT22;7648;52.264;9.632;2023-04-24T23:44:57;7.50;99.90
15095;DHT22;7648;52.264;9.632;2023-04-24T23:49:01;7.50;99.90
15095;DHT22;7648;52.264;9.632;2023-04-24T23:53:03;7.50;99.90
15095;DHT22;7648;52.264;9.632;2023-04-24T23:57:05;7.50;99.90
